createdAt,value
2023-02-24T00:02:05.980Z,4.88
2023-02-24T00:04:40.582Z,4.57
2023-02-24T00:07:10.437Z,6.45
2023-02-24T00:09:40.747Z,6.10
2023-02-24T00:12:11.293Z,5.38
2023-02-24T00:14:41.309Z,5.20
2023-02-24T00:17:09.077Z,6.43
2023-02-24T00:19:38.403Z,5.88
2023-02-24T00:22:08.849Z,6.10
2023-02-24T00:24:36.253Z,4.90
2023-02-24T00:27:08.302Z,4.75
2023-02-24T00:29:40.082Z,4.50
2023-02-24T00:32:12.515Z,4.25
2023-02-24T00:34:40.374Z,5.13
2023-02-24T00:37:08.748Z,4.45
2023-02-24T00:39:37.471Z,4.95
2023-02-24T00:42:06.252Z,4.80
2023-02-24T00:44:44.242Z,5.05
2023-02-24T00:47:12.176Z,5.95
2023-02-24T00:49:42.438Z,6.03
2023-02-24T00:52:15.712Z,4.90
2023-02-24T00:54:44.532Z,4.45
2023-02-24T00:57:12.781Z,3.70
2023-02-24T00:59:40.717Z,4.00
2023-02-24T01:02:08.372Z,5.03
2023-02-24T01:04:37.625Z,4.75
2023-02-24T01:07:10.567Z,4.13
2023-02-24T01:09:40.229Z,3.97
2023-02-24T01:12:38.582Z,6.07
2023-02-24T01:15:09.008Z,3.28
2023-02-24T01:17:37.894Z,3.67
2023-02-24T01:20:17.058Z,5.05
2023-02-24T01:22:46.414Z,5.18
2023-02-24T01:25:14.521Z,4.22
2023-02-24T01:27:42.256Z,4.10
2023-02-24T01:30:16.336Z,4.28
2023-02-24T01:32:44.935Z,4.47
2023-02-24T01:35:12.361Z,3.00
2023-02-24T01:37:40.983Z,3.92
2023-02-24T01:40:12.126Z,4.60
2023-02-24T01:42:42.082Z,3.58
2023-02-24T01:45:16.759Z,3.88
2023-02-24T01:50:16.151Z,3.75
2023-02-24T01:52:46.860Z,4.43
2023-02-24T01:55:16.751Z,4.72
2023-02-24T01:57:46.137Z,3.83
2023-02-24T02:00:34.022Z,3.55
2023-02-24T02:03:26.565Z,4.40
2023-02-24T02:06:06.443Z,4.70
2023-02-24T02:08:36.674Z,3.00
2023-02-24T02:11:07.657Z,4.15
2023-02-24T02:13:38.070Z,3.15
2023-02-24T02:16:49.259Z,3.38
2023-02-24T02:19:47.245Z,3.65
2023-02-24T02:22:37.982Z,4.28
2023-02-24T02:25:52.186Z,3.10
2023-02-24T02:28:38.268Z,3.78
2023-02-24T02:31:28.996Z,3.65
2023-02-24T02:34:12.729Z,3.83
2023-02-24T02:36:58.701Z,3.20
2023-02-24T02:39:49.221Z,4.57
2023-02-24T02:42:28.195Z,3.10
2023-02-24T02:45:05.530Z,2.38
2023-02-24T02:47:53.987Z,2.58
2023-02-24T02:50:43.278Z,4.13
2023-02-24T02:53:26.637Z,3.05
2023-02-24T02:56:17.760Z,2.72
2023-02-24T02:58:53.176Z,2.20
2023-02-24T03:01:23.851Z,3.65
2023-02-24T03:04:01.177Z,3.47
2023-02-24T03:06:34.128Z,3.40
2023-02-24T03:09:19.471Z,3.55
2023-02-24T03:11:53.582Z,2.13
2023-02-24T03:14:27.042Z,3.33
2023-02-24T03:16:56.243Z,1.77
2023-02-24T03:19:32.067Z,3.45
2023-02-24T03:22:22.386Z,4.30
2023-02-24T03:24:49.754Z,2.30
2023-02-24T03:27:33.885Z,3.38
2023-02-24T03:30:15.799Z,2.10
2023-02-24T03:33:09.930Z,2.17
2023-02-24T03:35:40.122Z,1.90
2023-02-24T03:38:10.130Z,2.65
2023-02-24T03:40:39.339Z,3.17
2023-02-24T03:43:30.222Z,2.47
2023-02-24T03:45:59.246Z,2.20
2023-02-24T03:48:28.617Z,2.83
2023-02-24T03:50:56.589Z,2.42
2023-02-24T03:53:32.799Z,3.15
2023-02-24T03:56:13.257Z,2.33
2023-02-24T03:59:12.967Z,2.33
2023-02-24T04:01:57.829Z,2.20
2023-02-24T04:04:31.183Z,2.58
2023-02-24T04:07:23.749Z,1.95
2023-02-24T04:10:06.376Z,2.35
2023-02-24T04:12:47.000Z,2.33
2023-02-24T04:15:29.952Z,1.40
2023-02-24T04:18:01.242Z,2.00
2023-02-24T04:20:33.072Z,2.92
2023-02-24T04:23:10.957Z,2.30
2023-02-24T04:25:40.673Z,1.33
2023-02-24T04:28:09.036Z,2.47
2023-02-24T04:30:41.307Z,1.17
2023-02-24T04:33:10.134Z,2.20
2023-02-24T04:35:40.402Z,1.38
2023-02-24T04:38:08.529Z,1.63
2023-02-24T04:40:36.792Z,1.98
2023-02-24T04:43:04.097Z,1.58
2023-02-24T04:45:32.578Z,1.63
2023-02-24T04:48:02.072Z,1.83
2023-02-24T04:50:35.561Z,1.95
2023-02-24T04:53:09.442Z,2.38
2023-02-24T04:55:42.425Z,1.60
2023-02-24T04:58:14.410Z,1.55
2023-02-24T05:00:42.341Z,1.33
2023-02-24T05:03:11.973Z,1.45
2023-02-24T05:05:39.330Z,2.90
2023-02-24T05:08:10.074Z,1.33
2023-02-24T05:10:45.522Z,1.52
2023-02-24T05:13:18.779Z,1.92
2023-02-24T05:15:48.046Z,2.53
2023-02-24T05:18:25.846Z,1.33
2023-02-24T05:21:15.789Z,2.28
2023-02-24T05:23:46.063Z,1.77
2023-02-24T05:26:19.607Z,1.30
2023-02-24T05:28:52.155Z,3.35
2023-02-24T05:31:30.958Z,1.77
2023-02-24T05:34:02.614Z,1.67
2023-02-24T05:36:34.166Z,2.25
2023-02-24T05:39:07.554Z,2.22
2023-02-24T05:41:38.867Z,2.72
2023-02-24T05:44:15.835Z,1.75
2023-02-24T05:46:45.855Z,1.60
2023-02-24T05:49:23.312Z,1.95
2023-02-24T05:51:55.547Z,1.25
2023-02-24T05:54:30.250Z,3.65
2023-02-24T05:57:07.230Z,1.65
2023-02-24T05:59:34.939Z,2.05
2023-02-24T06:02:11.522Z,1.55
2023-02-24T06:04:45.880Z,2.45
2023-02-24T06:07:19.333Z,1.42
2023-02-24T06:09:50.142Z,1.40
2023-02-24T06:12:18.412Z,2.45
2023-02-24T06:14:45.765Z,1.63
2023-02-24T06:17:16.882Z,2.63
2023-02-24T06:19:45.232Z,1.48
2023-02-24T06:22:14.852Z,1.73
2023-02-24T06:24:44.958Z,3.15
2023-02-24T06:27:19.769Z,2.30
2023-02-24T06:29:50.002Z,1.95
2023-02-24T06:32:23.798Z,2.90
2023-02-24T06:34:52.412Z,1.97
2023-02-24T06:37:19.997Z,4.05
2023-02-24T06:39:48.038Z,2.72
2023-02-24T06:42:15.419Z,1.98
2023-02-24T06:44:42.745Z,2.92
2023-02-24T06:47:19.095Z,2.03
2023-02-24T06:49:47.940Z,2.40
2023-02-24T06:52:18.901Z,2.22
2023-02-24T06:54:49.404Z,1.83
2023-02-24T06:57:16.842Z,3.67
2023-02-24T06:59:44.189Z,2.17
2023-02-24T07:02:11.529Z,2.58
2023-02-24T07:04:43.953Z,3.55
2023-02-24T07:07:14.166Z,1.88
2023-02-24T07:09:42.778Z,2.13
2023-02-24T07:12:12.496Z,1.98
2023-02-24T07:14:40.404Z,2.03
2023-02-24T07:17:08.805Z,2.55
2023-02-24T07:19:36.889Z,2.35
2023-02-24T07:22:04.633Z,1.55
2023-02-24T07:24:39.284Z,2.03
2023-02-24T07:27:10.564Z,2.50
2023-02-24T07:29:38.782Z,6.47
2023-02-24T07:32:09.052Z,2.55
2023-02-24T07:34:40.279Z,2.83
2023-02-24T07:37:08.654Z,3.83
2023-02-24T07:39:37.594Z,7.80
2023-02-24T07:42:06.333Z,9.73
2023-02-24T07:44:33.622Z,5.65
2023-02-24T07:47:07.582Z,4.75
2023-02-24T07:49:35.428Z,4.75
2023-02-24T07:52:02.739Z,10.32
2023-02-24T07:54:30.654Z,8.43
2023-02-24T07:56:59.760Z,7.85
2023-02-24T07:59:32.527Z,4.50
2023-02-24T08:02:04.589Z,5.80
2023-02-24T08:04:39.640Z,4.10
2023-02-24T08:07:14.359Z,5.20
2023-02-24T08:12:22.898Z,3.83
2023-02-24T08:14:52.978Z,3.20
2023-02-24T08:17:23.371Z,6.03
2023-02-24T08:20:12.029Z,4.45
2023-02-24T08:22:44.431Z,5.88
2023-02-24T08:25:18.492Z,4.70
2023-02-24T08:28:06.875Z,2.25
2023-02-24T08:30:39.442Z,5.00
2023-02-24T08:33:09.530Z,4.75
2023-02-24T08:35:39.307Z,5.32
2023-02-24T08:38:09.863Z,4.22
2023-02-24T08:40:40.040Z,5.43
2023-02-24T08:43:19.308Z,3.10
2023-02-24T08:45:51.058Z,4.10
2023-02-24T08:48:37.631Z,3.38
2023-02-24T08:51:28.906Z,6.20
2023-02-24T08:54:02.294Z,4.43
2023-02-24T08:56:34.509Z,4.22
2023-02-24T08:59:06.238Z,5.03
2023-02-24T09:01:39.197Z,5.03
2023-02-24T09:04:12.275Z,6.85
2023-02-24T09:06:45.742Z,4.03
2023-02-24T09:09:21.395Z,5.68
2023-02-24T09:11:57.214Z,6.70
2023-02-24T09:14:28.929Z,4.20
2023-02-24T09:17:11.710Z,4.15
2023-02-24T09:19:46.522Z,7.10
2023-02-24T09:25:18.904Z,4.03
2023-02-24T09:28:07.886Z,6.88
2023-02-24T09:30:53.497Z,5.63
2023-02-24T09:33:39.688Z,3.90
2023-02-24T09:36:10.154Z,4.68
2023-02-24T09:39:00.499Z,3.58
2023-02-24T09:41:55.662Z,4.47
2023-02-24T09:44:33.554Z,5.93
2023-02-24T09:47:31.202Z,4.13
2023-02-24T09:50:05.581Z,3.55
2023-02-24T09:52:42.844Z,4.20
2023-02-24T09:55:35.724Z,3.78
2023-02-24T09:58:20.988Z,4.53
2023-02-24T10:00:52.354Z,7.18
2023-02-24T10:03:47.784Z,4.78
2023-02-24T10:09:11.688Z,6.55
2023-02-24T10:11:53.478Z,3.88
2023-02-24T10:14:51.167Z,4.38
2023-02-24T10:17:40.254Z,5.07
2023-02-24T10:20:39.568Z,3.45
2023-02-24T10:23:32.914Z,3.60
2023-02-24T10:26:21.965Z,2.78
2023-02-24T10:29:00.216Z,5.93
2023-02-24T10:31:36.708Z,4.22
2023-02-24T10:34:11.449Z,6.30
2023-02-24T10:39:25.650Z,4.82
2023-02-24T10:41:59.325Z,6.35
2023-02-24T10:44:36.356Z,4.85
2023-02-24T10:47:11.664Z,4.88
2023-02-24T10:49:57.549Z,3.65
2023-02-24T10:52:51.232Z,4.05
2023-02-24T10:55:43.262Z,8.77
2023-02-24T10:58:44.559Z,8.32
2023-02-24T11:01:27.945Z,9.35
2023-02-24T11:04:22.786Z,10.93
2023-02-24T11:06:55.548Z,14.77
2023-02-24T11:09:28.155Z,10.50
2023-02-24T11:12:42.456Z,10.50
2023-02-24T11:15:41.342Z,11.93
2023-02-24T11:18:23.194Z,4.65
2023-02-24T11:21:03.310Z,4.28
2023-02-24T11:23:35.060Z,5.80
2023-02-24T11:26:20.732Z,7.95
2023-02-24T11:29:29.461Z,4.70
2023-02-24T11:32:08.996Z,3.50
2023-02-24T11:34:39.467Z,6.82
2023-02-24T11:37:09.766Z,5.97
2023-02-24T11:39:58.805Z,3.55
2023-02-24T11:42:51.572Z,4.97
2023-02-24T11:45:22.784Z,5.35
2023-02-24T11:47:55.305Z,6.78
2023-02-24T11:50:22.698Z,5.57
2023-02-24T11:52:54.729Z,6.43
2023-02-24T11:55:35.016Z,4.05
2023-02-24T11:58:33.110Z,5.72
2023-02-24T12:01:15.798Z,5.45
2023-02-24T12:04:32.678Z,4.72
2023-02-24T12:07:14.242Z,7.55
2023-02-24T12:10:15.993Z,4.43
2023-02-24T12:13:07.528Z,3.95
2023-02-24T12:15:48.739Z,6.10
2023-02-24T12:18:39.427Z,4.30
2023-02-24T12:21:30.647Z,7.05
2023-02-24T12:23:59.019Z,5.03
2023-02-24T12:26:44.121Z,2.35
2023-02-24T12:29:42.581Z,4.53
2023-02-24T12:32:24.100Z,1.77
2023-02-24T12:35:33.223Z,4.68
2023-02-24T12:38:15.462Z,4.28
2023-02-24T12:41:10.740Z,2.88
2023-02-24T12:46:28.645Z,4.70
2023-02-24T12:49:23.154Z,3.08
2023-02-24T12:51:59.340Z,5.60
2023-02-24T12:54:37.213Z,4.88
2023-02-24T12:57:13.502Z,3.03
2023-02-24T12:59:42.771Z,4.43
2023-02-24T13:02:28.354Z,5.53
2023-02-24T13:05:22.664Z,2.42
2023-02-24T13:08:05.008Z,5.35
2023-02-24T13:10:42.293Z,3.25
2023-02-24T13:13:44.856Z,3.15
2023-02-24T13:16:12.613Z,4.10
2023-02-24T13:18:40.260Z,5.53
2023-02-24T13:21:24.741Z,3.15
2023-02-24T13:24:01.472Z,4.28
2023-02-24T13:26:31.522Z,5.60
2023-02-24T13:29:03.530Z,6.78
2023-02-24T13:31:49.310Z,4.90
2023-02-24T13:34:30.942Z,3.88
2023-02-24T13:36:58.721Z,4.53
2023-02-24T13:39:37.767Z,5.95
2023-02-24T13:42:26.165Z,5.43
2023-02-24T13:45:11.145Z,4.53
2023-02-24T13:50:25.317Z,5.88
2023-02-24T13:53:17.227Z,4.45
2023-02-24T13:55:50.311Z,4.07
2023-02-24T13:58:39.013Z,9.70
2023-02-24T14:01:14.127Z,5.82
2023-02-24T14:03:45.592Z,4.13
2023-02-24T14:06:24.742Z,7.20
2023-02-24T14:08:59.190Z,6.30
2023-02-24T14:11:29.479Z,8.80
2023-02-24T14:13:58.035Z,5.88
2023-02-24T14:16:29.395Z,5.80
2023-02-24T14:18:59.231Z,4.72
2023-02-24T14:21:30.191Z,6.93
2023-02-24T14:24:05.250Z,5.38
2023-02-24T14:26:42.320Z,4.22
2023-02-24T14:29:10.245Z,3.70
2023-02-24T14:31:37.854Z,4.28
2023-02-24T14:34:09.122Z,4.07
2023-02-24T14:36:44.962Z,8.60
2023-02-24T14:39:24.269Z,5.95
2023-02-24T14:42:03.277Z,7.05
2023-02-24T14:44:31.195Z,7.07
2023-02-24T14:47:02.531Z,10.73
2023-02-24T14:49:32.935Z,8.38
2023-02-24T14:52:11.877Z,9.60
2023-02-24T14:54:58.868Z,6.03
2023-02-24T14:57:31.670Z,4.32
2023-02-24T15:00:11.591Z,5.93
2023-02-24T15:02:49.278Z,6.43
2023-02-24T15:05:17.102Z,7.07
2023-02-24T15:07:45.676Z,5.60
2023-02-24T15:10:29.728Z,9.80
2023-02-24T15:13:18.722Z,4.60
2023-02-24T15:15:46.217Z,6.15
2023-02-24T15:18:26.306Z,3.90
2023-02-24T15:21:02.746Z,5.10
2023-02-24T15:23:33.861Z,4.38
2023-02-24T15:26:01.659Z,5.65
2023-02-24T15:28:31.660Z,4.97
2023-02-24T15:31:15.776Z,4.68
2023-02-24T15:33:52.672Z,4.20
2023-02-24T15:36:24.047Z,5.97
2023-02-24T15:38:55.461Z,11.40
2023-02-24T15:41:22.808Z,5.97
2023-02-24T15:43:56.411Z,5.80
2023-02-24T15:46:33.696Z,4.67
2023-02-24T15:49:03.157Z,6.07
2023-02-24T15:51:45.428Z,6.75
2023-02-24T15:54:27.884Z,4.15
2023-02-24T15:57:01.813Z,3.67
2023-02-24T15:59:29.916Z,5.28
2023-02-24T16:01:57.993Z,4.07
2023-02-24T16:04:26.869Z,5.55
2023-02-24T16:06:57.601Z,4.40
2023-02-24T16:09:40.230Z,6.88
2023-02-24T16:12:15.391Z,4.10
2023-02-24T16:14:43.825Z,4.03
2023-02-24T16:17:41.387Z,7.80
2023-02-24T16:20:18.695Z,8.65
2023-02-24T16:22:46.428Z,4.45
2023-02-24T16:25:16.585Z,4.38
2023-02-24T16:27:44.130Z,2.10
2023-02-24T16:30:24.626Z,6.20
2023-02-24T16:32:52.786Z,4.63
2023-02-24T16:35:20.274Z,3.95
2023-02-24T16:37:48.407Z,3.53
2023-02-24T16:40:30.731Z,3.78
2023-02-24T16:42:58.220Z,3.30
2023-02-24T16:45:29.655Z,2.58
2023-02-24T16:48:02.182Z,5.05
2023-02-24T16:50:33.876Z,2.03
2023-02-24T16:53:01.638Z,4.68
2023-02-24T16:55:29.066Z,1.98
2023-02-24T16:57:56.358Z,1.60
2023-02-24T17:00:24.554Z,3.28
2023-02-24T17:02:53.131Z,3.15
2023-02-24T17:05:28.756Z,2.05
2023-02-24T17:07:58.079Z,2.50
2023-02-24T17:10:26.152Z,2.28
2023-02-24T17:12:53.422Z,1.80
2023-02-24T17:15:23.938Z,2.58
2023-02-24T17:17:51.289Z,2.38
2023-02-24T17:20:20.879Z,2.10
2023-02-24T17:22:48.434Z,1.77
2023-02-24T17:25:25.576Z,1.38
2023-02-24T17:27:54.472Z,3.78
2023-02-24T17:30:28.409Z,1.48
2023-02-24T17:32:56.345Z,1.98
2023-02-24T17:35:23.993Z,3.13
2023-02-24T17:37:51.385Z,1.60
2023-02-24T17:40:19.293Z,2.65
2023-02-24T17:42:46.578Z,1.65
2023-02-24T17:45:15.546Z,2.78
2023-02-24T17:47:42.932Z,2.25
2023-02-24T17:50:12.114Z,2.00
2023-02-24T17:52:39.792Z,2.22
2023-02-24T17:55:07.832Z,1.60
2023-02-24T17:57:35.842Z,2.00
2023-02-24T18:00:04.750Z,1.83
2023-02-24T18:02:32.126Z,2.80
2023-02-24T18:05:01.178Z,2.08
2023-02-24T18:07:28.481Z,2.88
2023-02-24T18:09:55.777Z,1.83
2023-02-24T18:12:24.641Z,2.42
2023-02-24T18:15:06.907Z,1.80
2023-02-24T18:17:35.890Z,2.33
2023-02-24T18:20:03.918Z,1.90
2023-02-24T18:22:31.206Z,2.17
2023-02-24T18:24:59.366Z,3.58
2023-02-24T18:27:26.808Z,2.88
2023-02-24T18:29:54.551Z,2.30
2023-02-24T18:32:22.031Z,1.90
2023-02-24T18:34:49.728Z,3.35
2023-02-24T18:37:17.034Z,2.42
2023-02-24T18:39:44.484Z,2.50
2023-02-24T18:42:11.830Z,3.17
2023-02-24T18:44:39.080Z,1.83
2023-02-24T18:47:09.541Z,2.42
2023-02-24T18:49:37.370Z,1.50
2023-02-24T18:52:05.525Z,3.47
2023-02-24T18:54:34.169Z,1.70
2023-02-24T18:57:01.947Z,2.85
2023-02-24T18:59:29.474Z,1.55
2023-02-24T19:01:57.223Z,1.98
2023-02-24T19:04:24.996Z,1.60
2023-02-24T19:06:52.553Z,3.60
2023-02-24T19:09:22.771Z,1.33
2023-02-24T19:11:50.932Z,2.45
2023-02-24T19:14:18.395Z,2.78
2023-02-24T19:16:46.326Z,2.20
2023-02-24T19:19:17.953Z,2.03
2023-02-24T19:21:45.979Z,2.83
2023-02-24T19:24:14.052Z,2.35
2023-02-24T19:26:43.803Z,3.15
2023-02-24T19:29:11.869Z,2.35
2023-02-24T19:31:40.220Z,3.97
2023-02-24T19:34:11.219Z,3.80
2023-02-24T19:36:39.113Z,3.80
2023-02-24T19:39:10.469Z,3.75
2023-02-24T19:41:38.387Z,3.15
2023-02-24T19:44:05.756Z,2.78
2023-02-24T19:46:34.455Z,3.88
2023-02-24T19:49:02.332Z,4.15
2023-02-24T19:51:30.437Z,3.80
2023-02-24T19:54:01.817Z,3.90
2023-02-24T19:56:31.432Z,3.47
2023-02-24T19:59:00.463Z,5.40
2023-02-24T20:01:29.336Z,6.05
2023-02-24T20:03:59.523Z,8.13
2023-02-24T20:06:31.604Z,5.18
2023-02-24T20:09:00.293Z,8.40
2023-02-24T20:11:32.916Z,6.85
2023-02-24T20:14:00.270Z,9.65
2023-02-24T20:16:32.476Z,6.03
2023-02-24T20:19:00.971Z,5.13
2023-02-24T20:21:29.115Z,8.63
2023-02-24T20:24:03.435Z,8.70
2023-02-24T20:26:31.650Z,6.75
2023-02-24T20:29:00.447Z,4.55
2023-02-24T20:31:29.727Z,4.55
2023-02-24T20:33:57.119Z,8.63
2023-02-24T20:36:27.930Z,6.78
2023-02-24T20:38:57.815Z,6.63
2023-02-24T20:41:26.598Z,5.90
2023-02-24T20:43:55.216Z,7.40
2023-02-24T20:46:28.370Z,8.38
2023-02-24T20:49:01.398Z,8.23
2023-02-24T20:51:29.909Z,7.50
2023-02-24T20:53:58.738Z,6.85
2023-02-24T20:56:34.072Z,4.43
2023-02-24T20:59:04.593Z,8.60
2023-02-24T21:01:33.484Z,7.80
2023-02-24T21:04:01.557Z,5.65
2023-02-24T21:06:29.515Z,5.85
2023-02-24T21:08:57.787Z,7.57
2023-02-24T21:11:25.564Z,6.85
2023-02-24T21:13:52.997Z,7.50
2023-02-24T21:16:21.680Z,5.95
2023-02-24T21:18:51.782Z,7.70
2023-02-24T21:21:19.940Z,8.88
2023-02-24T21:23:48.391Z,6.05
2023-02-24T21:26:16.136Z,6.88
2023-02-24T21:28:43.545Z,9.10
2023-02-24T21:31:21.801Z,7.18
2023-02-24T21:33:53.124Z,7.20
2023-02-24T21:36:23.491Z,5.90
2023-02-24T21:38:51.726Z,11.20
2023-02-24T21:41:19.518Z,8.27
2023-02-24T21:43:47.845Z,9.00
2023-02-24T21:46:16.052Z,5.25
2023-02-24T21:48:43.507Z,10.25
2023-02-24T21:51:13.624Z,8.32
2023-02-24T21:53:43.532Z,8.70
2023-02-24T21:56:18.786Z,7.40
2023-02-24T21:58:49.414Z,9.93
2023-02-24T22:01:19.662Z,9.13
2023-02-24T22:03:47.363Z,7.18
2023-02-24T22:06:17.510Z,6.40
2023-02-24T22:08:45.663Z,4.20
2023-02-24T22:11:16.066Z,5.70
2023-02-24T22:13:44.843Z,7.13
2023-02-24T22:16:21.545Z,6.43
2023-02-24T22:18:50.855Z,4.72
2023-02-24T22:21:20.409Z,5.45
2023-02-24T22:23:49.817Z,6.40
2023-02-24T22:26:18.699Z,5.43
2023-02-24T22:28:47.092Z,5.43
2023-02-24T22:31:17.551Z,6.22
2023-02-24T22:33:45.737Z,5.32
2023-02-24T22:36:16.043Z,5.43
2023-02-24T22:38:45.665Z,4.47
2023-02-24T22:41:22.796Z,3.33
2023-02-24T22:43:50.576Z,5.60
2023-02-24T22:46:22.303Z,3.88
2023-02-24T22:48:50.430Z,4.72
2023-02-24T22:51:18.649Z,5.85
2023-02-24T22:53:49.053Z,5.57
2023-02-24T22:56:20.212Z,2.85
2023-02-24T22:58:48.133Z,5.72
2023-02-24T23:01:17.634Z,4.60
2023-02-24T23:03:46.148Z,3.13
2023-02-24T23:06:19.973Z,4.70
2023-02-24T23:08:50.192Z,4.18
2023-02-24T23:11:24.714Z,3.80
2023-02-24T23:13:52.578Z,3.35
2023-02-24T23:16:24.191Z,3.92
2023-02-24T23:18:53.840Z,5.90
2023-02-24T23:21:31.068Z,3.35
2023-02-24T23:23:58.446Z,4.07
2023-02-24T23:26:32.696Z,4.45
2023-02-24T23:29:00.204Z,3.83
2023-02-24T23:31:27.778Z,3.00
2023-02-24T23:33:55.636Z,4.43
2023-02-24T23:36:24.429Z,4.07
2023-02-24T23:38:52.731Z,4.25
2023-02-24T23:41:20.038Z,3.25
2023-02-24T23:43:47.339Z,3.95
2023-02-24T23:46:15.178Z,3.58
2023-02-24T23:48:42.529Z,4.97
2023-02-24T23:51:13.794Z,3.05
2023-02-24T23:53:43.248Z,3.83
2023-02-24T23:56:14.661Z,6.00
2023-02-24T23:58:42.328Z,4.03
